createdAt,value
2018-07-27T00:02:08.612Z,51.00
2018-07-27T00:04:36.754Z,51.00
2018-07-27T00:07:04.901Z,51.20
2018-07-27T00:09:32.983Z,51.20
2018-07-27T00:12:01.105Z,50.90
2018-07-27T00:14:29.256Z,50.90
2018-07-27T00:16:57.347Z,50.90
2018-07-27T00:19:25.595Z,51.10
2018-07-27T00:21:53.711Z,51.10
2018-07-27T00:24:21.832Z,51.50
2018-07-27T00:26:49.916Z,51.50
2018-07-27T00:29:18.035Z,51.60
2018-07-27T00:31:46.171Z,52.10
2018-07-27T00:34:14.265Z,51.90
2018-07-27T00:36:42.370Z,52.00
2018-07-27T00:39:11.127Z,52.00
2018-07-27T00:41:39.201Z,51.90
2018-07-27T00:44:07.463Z,51.90
2018-07-27T00:46:35.596Z,51.90
2018-07-27T00:49:03.695Z,52.60
2018-07-27T00:51:31.790Z,52.10
2018-07-27T00:54:00.060Z,52.20
2018-07-27T00:56:28.372Z,52.30
2018-07-27T00:58:56.464Z,52.30
2018-07-27T01:01:24.584Z,52.30
2018-07-27T01:03:52.700Z,52.40
2018-07-27T01:06:20.823Z,52.50
2018-07-27T01:08:48.966Z,52.60
2018-07-27T01:11:17.056Z,52.70
2018-07-27T01:13:45.155Z,52.80
2018-07-27T01:16:13.347Z,52.80
2018-07-27T01:18:41.435Z,52.80
2018-07-27T01:21:09.556Z,52.90
2018-07-27T01:23:37.654Z,52.90
2018-07-27T01:26:05.783Z,52.90
2018-07-27T01:28:33.900Z,53.40
2018-07-27T01:31:01.980Z,53.60
2018-07-27T01:33:30.063Z,53.80
2018-07-27T01:35:58.175Z,53.60
2018-07-27T01:38:26.292Z,53.60
2018-07-27T01:40:54.376Z,53.80
2018-07-27T01:43:22.480Z,54.00
2018-07-27T01:45:50.559Z,53.90
2018-07-27T01:48:18.678Z,53.80
2018-07-27T01:50:46.755Z,53.80
2018-07-27T01:53:14.827Z,53.90
2018-07-27T01:55:43.004Z,54.30
2018-07-27T01:58:11.071Z,54.00
2018-07-27T02:00:39.200Z,54.10
2018-07-27T02:03:07.287Z,53.90
2018-07-27T02:05:35.392Z,54.10
2018-07-27T02:08:03.540Z,54.20
2018-07-27T02:10:31.623Z,54.30
2018-07-27T02:12:59.813Z,54.40
2018-07-27T02:18:05.027Z,54.40
2018-07-27T02:20:33.279Z,55.00
2018-07-27T02:23:01.375Z,55.10
2018-07-27T02:25:29.488Z,55.20
2018-07-27T02:27:57.683Z,55.20
2018-07-27T02:30:25.800Z,55.30
2018-07-27T02:32:53.930Z,55.60
2018-07-27T02:35:22.345Z,55.70
2018-07-27T02:37:50.499Z,56.10
2018-07-27T02:40:18.646Z,56.30
2018-07-27T02:42:46.731Z,56.30
2018-07-27T02:45:14.822Z,56.40
2018-07-27T02:47:47.407Z,56.60
2018-07-27T02:50:15.514Z,56.80
2018-07-27T02:52:43.796Z,56.70
2018-07-27T02:55:11.932Z,56.60
2018-07-27T02:57:40.000Z,56.50
2018-07-27T03:00:08.358Z,56.60
2018-07-27T03:02:36.460Z,56.80
2018-07-27T03:05:05.575Z,56.80
2018-07-27T03:07:33.673Z,56.90
2018-07-27T03:10:01.840Z,57.00
2018-07-27T03:12:29.951Z,57.10
2018-07-27T03:14:58.066Z,57.20
2018-07-27T03:17:26.207Z,57.30
2018-07-27T03:19:54.339Z,57.20
2018-07-27T03:22:22.440Z,57.00
2018-07-27T03:24:50.540Z,56.70
2018-07-27T03:27:18.678Z,56.70
2018-07-27T03:29:46.899Z,56.90
2018-07-27T03:32:15.065Z,57.00
2018-07-27T03:34:43.183Z,57.30
2018-07-27T03:37:11.290Z,57.40
2018-07-27T03:39:39.385Z,57.50
2018-07-27T03:42:07.631Z,57.40
2018-07-27T03:44:35.740Z,57.40
2018-07-27T03:47:03.826Z,57.30
2018-07-27T03:49:31.947Z,57.30
2018-07-27T03:52:00.061Z,57.40
2018-07-27T03:54:28.152Z,57.30
2018-07-27T03:56:56.307Z,57.30
2018-07-27T03:59:24.823Z,57.40
2018-07-27T04:01:52.939Z,57.60
2018-07-27T04:04:21.086Z,57.90
2018-07-27T04:06:49.228Z,57.90
2018-07-27T04:09:17.351Z,57.80
2018-07-27T04:11:45.468Z,57.90
2018-07-27T04:14:13.609Z,58.00
2018-07-27T04:19:09.616Z,58.70
2018-07-27T04:21:37.768Z,58.80
2018-07-27T04:24:05.852Z,58.80
2018-07-27T04:26:33.951Z,58.80
2018-07-27T04:29:02.189Z,58.90
2018-07-27T04:31:30.316Z,58.80
2018-07-27T04:33:58.448Z,58.80
2018-07-27T04:36:26.587Z,58.80
2018-07-27T04:38:54.735Z,59.00
2018-07-27T04:41:22.847Z,59.00
2018-07-27T04:43:51.016Z,58.90
2018-07-27T04:46:19.115Z,59.00
2018-07-27T04:48:47.195Z,59.00
2018-07-27T04:51:15.319Z,59.10
2018-07-27T04:53:43.463Z,59.00
2018-07-27T04:56:11.563Z,59.00
2018-07-27T04:58:39.654Z,59.00
2018-07-27T05:01:07.755Z,59.00
2018-07-27T05:03:35.863Z,59.00
2018-07-27T05:06:04.088Z,59.30
2018-07-27T05:08:35.203Z,59.40
2018-07-27T05:11:03.279Z,59.80
2018-07-27T05:13:31.360Z,59.90
2018-07-27T05:15:59.519Z,60.40
2018-07-27T05:18:27.595Z,60.40
2018-07-27T05:20:55.700Z,60.00
2018-07-27T05:23:23.853Z,59.90
2018-07-27T05:25:51.931Z,59.60
2018-07-27T05:28:20.038Z,59.00
2018-07-27T05:30:48.189Z,58.60
2018-07-27T05:33:16.361Z,58.60
2018-07-27T05:35:44.449Z,58.40
2018-07-27T05:38:12.595Z,58.30
2018-07-27T05:40:40.711Z,58.20
2018-07-27T05:43:08.843Z,57.80
2018-07-27T05:45:36.932Z,57.60
2018-07-27T05:48:05.235Z,57.80
2018-07-27T05:50:33.383Z,57.40
2018-07-27T05:53:01.492Z,57.00
2018-07-27T05:55:29.660Z,56.60
2018-07-27T05:57:57.798Z,56.70
2018-07-27T06:00:25.924Z,56.60
2018-07-27T06:02:54.114Z,56.20
2018-07-27T06:05:22.222Z,56.50
2018-07-27T06:07:50.331Z,56.20
2018-07-27T06:10:18.640Z,56.20
2018-07-27T06:12:46.748Z,56.00
2018-07-27T06:15:14.960Z,55.90
2018-07-27T06:17:43.206Z,55.10
2018-07-27T06:20:11.288Z,55.30
2018-07-27T06:22:39.367Z,55.10
2018-07-27T06:25:07.480Z,54.60
2018-07-27T06:27:35.630Z,55.10
2018-07-27T06:30:04.058Z,54.40
2018-07-27T06:32:32.128Z,54.50
2018-07-27T06:35:00.240Z,55.00
2018-07-27T06:37:28.359Z,54.70
2018-07-27T06:42:24.462Z,54.10
2018-07-27T06:44:52.561Z,53.30
2018-07-27T06:47:20.651Z,52.80
2018-07-27T06:49:48.753Z,52.50
2018-07-27T06:52:16.875Z,52.50
2018-07-27T06:54:45.025Z,52.80
2018-07-27T06:57:13.116Z,52.80
2018-07-27T06:59:41.267Z,52.50
2018-07-27T07:02:09.396Z,52.40
2018-07-27T07:04:37.450Z,51.00
2018-07-27T07:07:05.591Z,49.90
2018-07-27T07:09:34.200Z,49.30
2018-07-27T07:12:02.300Z,47.60
2018-07-27T07:14:30.391Z,47.50
2018-07-27T07:16:58.462Z,48.00
2018-07-27T07:19:26.560Z,46.60
2018-07-27T07:21:54.626Z,46.10
2018-07-27T07:24:22.731Z,45.70
2018-07-27T07:26:50.839Z,45.70
2018-07-27T07:29:18.919Z,45.00
2018-07-27T07:31:47.091Z,45.00
2018-07-27T07:34:15.174Z,45.30
2018-07-27T07:36:43.266Z,44.40
2018-07-27T07:39:12.799Z,43.20
2018-07-27T07:41:41.210Z,39.70
2018-07-27T07:46:38.080Z,39.40
2018-07-27T07:49:06.992Z,37.40
2018-07-27T07:51:36.368Z,35.40
2018-07-27T07:54:04.511Z,34.30
2018-07-27T07:56:33.128Z,32.80
2018-07-27T07:59:01.644Z,31.00
2018-07-27T08:01:29.790Z,29.50
2018-07-27T08:03:58.055Z,28.40
2018-07-27T08:06:26.167Z,29.10
2018-07-27T08:08:54.851Z,26.70
2018-07-27T08:11:22.924Z,26.10
2018-07-27T08:13:51.026Z,25.90
2018-07-27T08:16:19.120Z,26.30
2018-07-27T08:18:47.226Z,26.20
2018-07-27T08:21:16.196Z,25.30
2018-07-27T08:23:44.311Z,24.60
2018-07-27T08:26:47.719Z,25.00
2018-07-27T08:29:17.112Z,24.50
2018-07-27T08:31:46.432Z,25.10
2018-07-27T08:34:15.203Z,24.80
2018-07-27T08:36:43.421Z,25.00
2018-07-27T08:39:14.299Z,23.70
2018-07-27T08:41:42.708Z,23.40
2018-07-27T08:44:11.915Z,24.10
2018-07-27T08:46:40.134Z,25.60
2018-07-27T08:49:08.771Z,25.50
2018-07-27T08:51:36.994Z,25.20
2018-07-27T08:54:05.127Z,25.70
2018-07-27T08:56:33.259Z,25.70
2018-07-27T08:59:01.372Z,25.10
2018-07-27T09:01:29.485Z,25.00
2018-07-27T09:03:57.626Z,25.90
2018-07-27T09:06:25.736Z,25.70
2018-07-27T09:08:54.034Z,26.30
2018-07-27T09:11:22.512Z,26.70
2018-07-27T09:13:50.965Z,25.80
2018-07-27T09:16:19.346Z,25.70
2018-07-27T09:18:47.480Z,24.60
2018-07-27T09:21:15.611Z,25.00
2018-07-27T09:23:43.703Z,25.20
2018-07-27T09:26:11.819Z,25.00
2018-07-27T09:28:39.990Z,25.40
2018-07-27T09:31:08.104Z,24.90
2018-07-27T09:33:36.221Z,25.30
2018-07-27T09:36:04.343Z,25.80
2018-07-27T09:38:32.471Z,26.10
2018-07-27T09:41:00.606Z,26.20
2018-07-27T09:43:28.720Z,26.70
2018-07-27T09:45:56.835Z,26.40
2018-07-27T09:48:24.959Z,26.60
2018-07-27T09:50:53.052Z,25.80
2018-07-27T09:53:21.187Z,26.00
2018-07-27T09:55:49.433Z,26.20
2018-07-27T09:58:17.550Z,26.30
2018-07-27T10:00:50.995Z,26.50
2018-07-27T10:03:19.127Z,26.20
2018-07-27T10:05:47.348Z,26.20
2018-07-27T10:08:15.366Z,26.20
2018-07-27T10:10:44.628Z,26.10
2018-07-27T10:15:40.622Z,26.00
2018-07-27T10:18:08.695Z,25.50
2018-07-27T10:20:36.788Z,26.40
2018-07-27T10:23:04.895Z,26.70
2018-07-27T10:25:33.163Z,27.00
2018-07-27T10:28:01.232Z,27.20
2018-07-27T10:30:29.516Z,26.70
2018-07-27T10:32:57.608Z,26.60
2018-07-27T10:35:25.674Z,26.80
2018-07-27T10:37:53.771Z,26.50
2018-07-27T10:40:21.872Z,27.70
2018-07-27T10:42:50.008Z,27.90
2018-07-27T10:45:18.110Z,27.70
2018-07-27T10:47:46.235Z,28.40
2018-07-27T10:50:14.426Z,27.40
2018-07-27T10:52:42.445Z,27.50
2018-07-27T10:55:10.552Z,28.20
2018-07-27T10:57:38.771Z,27.10
2018-07-27T11:00:09.891Z,27.60
2018-07-27T11:02:38.321Z,27.50
2018-07-27T11:05:06.470Z,28.20
2018-07-27T11:07:34.623Z,28.40
2018-07-27T11:10:02.755Z,28.50
2018-07-27T11:12:30.852Z,28.60
2018-07-27T11:14:58.976Z,28.10
2018-07-27T11:17:27.268Z,28.00
2018-07-27T11:19:55.330Z,28.50
2018-07-27T11:22:23.447Z,29.00
2018-07-27T11:27:19.563Z,28.30
2018-07-27T11:29:47.693Z,27.70
2018-07-27T11:32:15.808Z,27.50
2018-07-27T11:34:43.928Z,27.20
2018-07-27T11:37:12.034Z,27.50
2018-07-27T11:39:40.099Z,28.90
2018-07-27T11:42:08.179Z,28.60
2018-07-27T11:44:36.185Z,28.30
2018-07-27T11:47:04.301Z,28.30
2018-07-27T11:52:00.320Z,28.90
2018-07-27T11:54:28.365Z,28.70
2018-07-27T11:56:57.069Z,28.60
2018-07-27T11:59:25.164Z,28.30
2018-07-27T12:01:53.193Z,28.00
2018-07-27T12:18:39.896Z,29.50
2018-07-27T12:21:08.048Z,30.00
2018-07-27T12:23:36.056Z,30.30
2018-07-27T12:26:04.164Z,29.70
2018-07-27T12:28:32.268Z,29.20
2018-07-27T12:31:00.805Z,30.40
2018-07-27T12:33:29.066Z,30.90
2018-07-27T12:38:25.187Z,31.20
2018-07-27T12:40:53.279Z,31.30
2018-07-27T12:43:21.865Z,31.60
2018-07-27T12:45:50.191Z,31.70
2018-07-27T12:48:18.299Z,32.00
2018-07-27T12:50:46.408Z,32.50
2018-07-27T12:53:14.559Z,32.50
2018-07-27T12:55:42.718Z,31.70
2018-07-27T12:58:10.808Z,31.90
2018-07-27T13:00:38.932Z,32.30
2018-07-27T13:03:07.081Z,32.60
2018-07-27T13:05:35.285Z,32.70
2018-07-27T13:08:03.331Z,32.50
2018-07-27T13:10:31.444Z,31.90
2018-07-27T13:12:59.538Z,32.20
2018-07-27T13:15:27.866Z,33.70
2018-07-27T13:17:55.980Z,33.60
2018-07-27T13:20:24.315Z,33.70
2018-07-27T13:22:52.439Z,33.60
2018-07-27T13:25:20.582Z,33.50
2018-07-27T13:30:23.230Z,32.80
2018-07-27T13:32:51.533Z,33.30
2018-07-27T13:35:19.860Z,33.40
2018-07-27T13:37:48.084Z,32.40
2018-07-27T13:40:16.173Z,32.90
2018-07-27T13:42:44.310Z,32.70
2018-07-27T13:45:12.440Z,31.40
2018-07-27T13:47:40.647Z,31.50
2018-07-27T13:50:08.787Z,31.40
2018-07-27T13:52:36.883Z,31.80
2018-07-27T13:55:05.068Z,31.40
2018-07-27T13:57:33.217Z,31.50
2018-07-27T14:00:01.348Z,32.00
2018-07-27T14:02:29.515Z,31.50
2018-07-27T14:04:57.715Z,31.30
2018-07-27T14:07:25.952Z,31.50
2018-07-27T14:09:54.567Z,32.50
2018-07-27T14:12:23.730Z,32.50
2018-07-27T14:14:51.827Z,32.70
2018-07-27T14:17:19.949Z,33.10
2018-07-27T14:22:15.975Z,33.10
2018-07-27T14:24:44.129Z,33.60
2018-07-27T14:27:12.240Z,33.80
2018-07-27T14:29:40.355Z,33.80
2018-07-27T14:32:08.492Z,33.80
2018-07-27T14:34:36.644Z,33.90
2018-07-27T14:37:04.759Z,33.40
2018-07-27T14:39:32.868Z,33.20
2018-07-27T14:42:00.993Z,33.50
2018-07-27T14:44:29.180Z,32.90
2018-07-27T14:46:57.200Z,33.00
2018-07-27T14:49:25.276Z,33.70
2018-07-27T14:51:53.387Z,33.70
2018-07-27T14:54:21.476Z,34.00
2018-07-27T14:56:49.581Z,34.00
2018-07-27T14:59:17.680Z,33.70
2018-07-27T15:01:45.827Z,33.40
2018-07-27T15:04:13.841Z,33.20
2018-07-27T15:06:41.919Z,33.00
2018-07-27T15:09:12.913Z,33.00
2018-07-27T15:11:41.436Z,33.30
2018-07-27T15:14:09.542Z,32.90
2018-07-27T15:16:37.782Z,33.00
2018-07-27T15:19:05.880Z,33.20
2018-07-27T15:21:34.021Z,33.20
2018-07-27T15:24:02.228Z,33.70
2018-07-27T15:26:30.331Z,33.70
2018-07-27T15:28:58.452Z,33.80
2018-07-27T15:31:26.574Z,33.10
2018-07-27T15:33:54.847Z,34.20
2018-07-27T15:36:23.024Z,33.50
2018-07-27T15:38:51.135Z,33.60
2018-07-27T15:41:19.251Z,33.90
2018-07-27T15:43:47.385Z,34.00
2018-07-27T15:46:15.531Z,34.00
2018-07-27T15:48:43.655Z,34.30
2018-07-27T15:51:11.773Z,34.20
2018-07-27T15:53:39.883Z,34.00
2018-07-27T15:56:08.015Z,33.60
2018-07-27T15:58:36.115Z,33.70
2018-07-27T16:01:04.292Z,33.80
2018-07-27T16:03:32.419Z,33.50
2018-07-27T16:06:00.576Z,33.90
2018-07-27T16:08:28.676Z,34.40
2018-07-27T16:10:56.827Z,34.20
2018-07-27T16:13:24.915Z,34.10
2018-07-27T16:15:53.045Z,33.90
2018-07-27T16:18:21.158Z,33.90
2018-07-27T16:20:49.278Z,34.00
2018-07-27T16:23:17.419Z,33.60
2018-07-27T16:25:45.557Z,34.00
2018-07-27T16:28:13.679Z,33.90
2018-07-27T16:30:41.784Z,33.30
2018-07-27T16:35:37.792Z,32.80
2018-07-27T16:38:05.948Z,32.70
2018-07-27T16:40:34.078Z,32.90
2018-07-27T16:43:02.146Z,33.00
2018-07-27T16:45:30.350Z,32.90
2018-07-27T16:50:26.438Z,33.60
2018-07-27T16:52:54.561Z,33.50
2018-07-27T16:55:22.581Z,34.10
2018-07-27T16:57:50.758Z,34.00
2018-07-27T17:00:18.876Z,34.00
2018-07-27T17:02:47.010Z,34.00
2018-07-27T17:05:15.132Z,34.70
2018-07-27T17:07:43.289Z,34.10
2018-07-27T17:10:11.439Z,34.00
2018-07-27T17:12:39.511Z,33.90
2018-07-27T17:15:07.627Z,34.20
2018-07-27T17:17:35.715Z,34.30
2018-07-27T17:20:04.332Z,34.10
2018-07-27T17:22:32.430Z,34.00
2018-07-27T17:25:00.610Z,34.30
2018-07-27T17:27:28.660Z,33.50
2018-07-27T17:34:52.588Z,34.50
2018-07-27T17:37:20.712Z,34.50
2018-07-27T17:39:49.133Z,34.50
2018-07-27T17:42:17.263Z,34.60
2018-07-27T17:44:45.367Z,34.70
2018-07-27T17:47:13.463Z,34.80
2018-07-27T17:49:41.684Z,34.90
2018-07-27T17:52:09.781Z,34.90
2018-07-27T17:54:37.879Z,34.30
2018-07-27T17:57:06.300Z,34.00
2018-07-27T17:59:34.439Z,34.40
2018-07-27T18:02:02.594Z,34.60
2018-07-27T18:04:30.677Z,34.70
2018-07-27T18:06:58.825Z,34.90
2018-07-27T18:09:26.891Z,34.80
2018-07-27T18:11:55.095Z,34.90
2018-07-27T18:14:23.263Z,34.80
2018-07-27T18:16:58.004Z,35.00
2018-07-27T18:19:26.136Z,36.00
2018-07-27T18:21:54.259Z,35.30
2018-07-27T18:24:22.384Z,35.30
2018-07-27T18:26:50.506Z,35.40
2018-07-27T18:29:18.598Z,35.60
2018-07-27T18:31:46.774Z,36.20
2018-07-27T18:34:14.894Z,36.00
2018-07-27T18:36:42.991Z,36.00
2018-07-27T18:39:12.319Z,36.20
2018-07-27T18:41:40.455Z,36.30
2018-07-27T18:44:08.729Z,36.50
2018-07-27T18:46:37.475Z,36.60
2018-07-27T18:49:05.642Z,36.60
2018-07-27T18:51:33.778Z,36.60
2018-07-27T18:54:02.155Z,36.90
2018-07-27T18:56:30.357Z,37.00
2018-07-27T18:58:58.428Z,36.90
2018-07-27T19:01:26.559Z,37.20
2018-07-27T19:03:54.672Z,37.40
2018-07-27T19:06:22.828Z,37.50
2018-07-27T19:08:50.935Z,37.80
2018-07-27T19:11:19.060Z,38.20
2018-07-27T19:13:47.161Z,38.80
2018-07-27T19:16:15.297Z,38.40
2018-07-27T19:18:43.386Z,38.70
2018-07-27T19:21:11.529Z,38.60
2018-07-27T19:23:39.711Z,38.70
2018-07-27T19:26:07.763Z,38.80
2018-07-27T19:28:35.859Z,38.90
2018-07-27T19:31:04.051Z,39.00
2018-07-27T19:33:32.143Z,39.30
2018-07-27T19:36:00.254Z,39.50
2018-07-27T19:38:28.418Z,40.00
2018-07-27T19:40:58.213Z,40.60
2018-07-27T19:43:26.327Z,41.70
2018-07-27T19:45:54.439Z,42.30
2018-07-27T19:48:22.615Z,43.00
2018-07-27T19:50:50.734Z,43.40
2018-07-27T19:53:18.870Z,44.00
2018-07-27T19:55:47.003Z,44.90
2018-07-27T19:58:15.170Z,45.60
2018-07-27T20:00:43.283Z,45.90
2018-07-27T20:03:11.391Z,46.60
2018-07-27T20:05:39.507Z,47.00
2018-07-27T20:08:07.615Z,47.50
2018-07-27T20:10:35.754Z,48.00
2018-07-27T20:13:04.006Z,48.20
2018-07-27T20:15:32.106Z,49.30
2018-07-27T20:18:00.223Z,49.00
2018-07-27T20:20:28.351Z,49.30
2018-07-27T20:22:56.464Z,49.50
2018-07-27T20:25:24.596Z,49.70
2018-07-27T20:27:52.761Z,50.00
2018-07-27T20:30:20.872Z,51.00
2018-07-27T20:32:48.999Z,50.40
2018-07-27T20:35:17.127Z,50.40
2018-07-27T20:37:45.377Z,50.60
2018-07-27T20:40:13.482Z,50.70
2018-07-27T20:42:42.527Z,50.90
2018-07-27T20:45:10.636Z,51.90
2018-07-27T20:47:38.775Z,51.30
2018-07-27T20:50:07.395Z,51.40
2018-07-27T20:52:35.499Z,51.80
2018-07-27T20:55:03.643Z,52.00
2018-07-27T20:59:59.671Z,52.30
2018-07-27T21:02:27.791Z,52.70
2018-07-27T21:04:55.879Z,52.30
2018-07-27T21:07:24.205Z,52.00
2018-07-27T21:09:52.372Z,51.90
2018-07-27T21:12:20.405Z,52.00
2018-07-27T21:14:48.473Z,52.80
2018-07-27T21:17:16.562Z,51.90
2018-07-27T21:19:44.616Z,51.10
2018-07-27T21:22:12.741Z,51.20
2018-07-27T21:24:40.804Z,51.10
2018-07-27T21:27:08.893Z,51.40
2018-07-27T21:29:36.968Z,51.40
2018-07-27T21:32:05.055Z,51.30
2018-07-27T21:34:33.138Z,51.10
2018-07-27T21:39:35.772Z,50.90
2018-07-27T21:42:03.927Z,50.60
2018-07-27T21:44:32.091Z,50.70
2018-07-27T21:47:00.185Z,50.60
2018-07-27T21:49:28.354Z,50.70
2018-07-27T21:51:56.488Z,51.70
2018-07-27T21:54:24.595Z,51.20
2018-07-27T21:56:52.708Z,51.40
2018-07-27T21:59:20.827Z,51.30
2018-07-27T22:01:48.972Z,51.60
2018-07-27T22:04:17.068Z,51.70
2018-07-27T22:06:45.155Z,51.90
2018-07-27T22:09:13.286Z,52.10
2018-07-27T22:11:41.399Z,52.30
2018-07-27T22:14:09.536Z,52.50
2018-07-27T22:16:37.663Z,52.50
2018-07-27T22:19:05.800Z,52.80
2018-07-27T22:21:33.910Z,52.70
2018-07-27T22:24:02.146Z,53.00
2018-07-27T22:26:30.255Z,53.10
2018-07-27T22:28:58.374Z,53.40
2018-07-27T22:31:26.543Z,53.80
2018-07-27T22:33:54.650Z,54.10
2018-07-27T22:36:23.664Z,54.30
2018-07-27T22:38:51.989Z,54.50
2018-07-27T22:41:20.343Z,54.70
2018-07-27T22:43:48.587Z,54.70
2018-07-27T22:46:16.751Z,54.70
2018-07-27T22:48:45.447Z,54.80
2018-07-27T22:51:13.727Z,54.90
2018-07-27T22:53:41.856Z,55.10
2018-07-27T22:56:09.973Z,55.20
2018-07-27T22:58:38.139Z,55.30
2018-07-27T23:01:06.360Z,55.70
2018-07-27T23:03:34.487Z,55.90
2018-07-27T23:06:02.608Z,55.90
2018-07-27T23:08:30.740Z,56.10
2018-07-27T23:10:58.867Z,55.80
2018-07-27T23:13:26.987Z,56.60
2018-07-27T23:15:55.115Z,56.70
2018-07-27T23:18:23.256Z,56.70
2018-07-27T23:20:51.372Z,57.00
2018-07-27T23:23:19.452Z,57.10
2018-07-27T23:25:47.562Z,57.70
2018-07-27T23:28:15.718Z,57.10
2018-07-27T23:30:43.855Z,57.30
2018-07-27T23:33:11.943Z,57.40
2018-07-27T23:35:40.099Z,57.60
2018-07-27T23:38:08.192Z,57.90
2018-07-27T23:40:36.316Z,57.80
2018-07-27T23:45:32.390Z,58.50
2018-07-27T23:48:00.467Z,58.80
2018-07-27T23:50:28.599Z,58.70
2018-07-27T23:53:08.300Z,58.70
2018-07-27T23:55:36.520Z,59.20
2018-07-27T23:58:04.635Z,59.00
